Terminal Aerodrome Forecast
Issued by NWS Atlanta, GA

Home | Current Version | Previous Version | Text Only | Print | Product List | Glossary On
Versions: 1 2 3 4 5 6 7 8 9 10 11 12 13 14 15 16 17 18 19 20 21 22 23 24 25 26 27 28 29 30 31 32 33 34 35 36 37 38 39
000
FTUS42 KFFC 300331 AAC
TAFATL
TAF AMD
KATL 300331Z 3004/3106 12005KT P6SM FEW100 SCT150
     FM301000 04003KT P6SM SCT120
     FM301500 35006KT P6SM FEW040
     FM301800 34007KT P6SM VCSH BKN050 PROB30 3019/3023 6SM -TSRA
      BKN040CB
     FM310000 34010KT P6SM FEW040 SCT250=

USA.gov is the U.S. government's official web portal to all federal, state and local government web resources and services.